sensor_id;sensor_type;location;lat;lon;timestamp;pressure;altitude;pressure_sealevel;temperature;humidity
3780;BME280;1905;52.482;9.802;2022-12-26T00:00:52;100390.50;;;10.68;97.21
3780;BME280;1905;52.482;9.802;2022-12-26T00:03:20;100383.44;;;10.69;97.70
3780;BME280;1905;52.482;9.802;2022-12-26T00:05:48;100382.66;;;10.67;97.66
3780;BME280;1905;52.482;9.802;2022-12-26T00:08:17;100389.72;;;10.66;96.96
3780;BME280;1905;52.482;9.802;2022-12-26T00:10:45;100393.22;;;10.67;97.56
3780;BME280;1905;52.482;9.802;2022-12-26T00:13:13;100394.13;;;10.66;97.33
3780;BME280;1905;52.482;9.802;2022-12-26T00:16:05;100384.53;;;10.65;97.30
3780;BME280;1905;52.482;9.802;2022-12-26T00:18:32;100384.44;;;10.66;96.82
3780;BME280;1905;52.482;9.802;2022-12-26T00:21:00;100380.06;;;10.65;97.55
3780;BME280;1905;52.482;9.802;2022-12-26T00:23:30;100377.53;;;10.64;97.06
3780;BME280;1905;52.482;9.802;2022-12-26T00:26:01;100396.94;;;10.63;97.52
3780;BME280;1905;52.482;9.802;2022-12-26T00:28:28;100388.22;;;10.61;97.64
3780;BME280;1905;52.482;9.802;2022-12-26T00:30:56;100396.94;;;10.63;97.58
3780;BME280;1905;52.482;9.802;2022-12-26T00:33:24;100388.22;;;10.61;97.00
3780;BME280;1905;52.482;9.802;2022-12-26T00:35:51;100379.38;;;10.62;97.38
3780;BME280;1905;52.482;9.802;2022-12-26T00:38:19;100372.38;;;10.61;97.56
3780;BME280;1905;52.482;9.802;2022-12-26T00:40:48;100382.19;;;10.59;97.62
3780;BME280;1905;52.482;9.802;2022-12-26T00:43:15;100385.69;;;10.59;96.90
3780;BME280;1905;52.482;9.802;2022-12-26T00:45:43;100373.41;;;10.58;97.09
3780;BME280;1905;52.482;9.802;2022-12-26T00:48:11;100377.81;;;10.58;97.17
3780;BME280;1905;52.482;9.802;2022-12-26T00:50:38;100374.25;;;10.59;97.56
3780;BME280;1905;52.482;9.802;2022-12-26T00:53:06;100383.97;;;10.58;97.13
3780;BME280;1905;52.482;9.802;2022-12-26T00:55:33;100378.75;;;10.57;96.98
3780;BME280;1905;52.482;9.802;2022-12-26T00:58:03;100384.03;;;10.57;97.29
3780;BME280;1905;52.482;9.802;2022-12-26T01:00:31;100380.53;;;10.56;96.65
3780;BME280;1905;52.482;9.802;2022-12-26T01:02:58;100391.97;;;10.57;97.30
3780;BME280;1905;52.482;9.802;2022-12-26T01:05:26;100395.63;;;10.54;97.22
3780;BME280;1905;52.482;9.802;2022-12-26T01:07:54;100407.94;;;10.54;96.80
3780;BME280;1905;52.482;9.802;2022-12-26T01:10:43;100402.69;;;10.54;96.85
3780;BME280;1905;52.482;9.802;2022-12-26T01:13:13;100393.88;;;10.53;96.82
3780;BME280;1905;52.482;9.802;2022-12-26T01:15:46;100401.81;;;10.53;97.51
3780;BME280;1905;52.482;9.802;2022-12-26T01:18:14;100401.09;;;10.50;97.59
3780;BME280;1905;52.482;9.802;2022-12-26T01:20:42;100392.25;;;10.51;96.84
3780;BME280;1905;52.482;9.802;2022-12-26T01:23:09;100403.69;;;10.51;96.78
3780;BME280;1905;52.482;9.802;2022-12-26T01:25:37;100390.53;;;10.50;96.67
3780;BME280;1905;52.482;9.802;2022-12-26T01:28:26;100400.22;;;10.49;97.15
3780;BME280;1905;52.482;9.802;2022-12-26T01:30:54;100402.97;;;10.48;96.94
3780;BME280;1905;52.482;9.802;2022-12-26T01:33:21;100399.41;;;10.49;96.42
3780;BME280;1905;52.482;9.802;2022-12-26T01:35:50;100404.69;;;10.49;97.25
3780;BME280;1905;52.482;9.802;2022-12-26T01:38:18;100401.22;;;10.47;97.33
3780;BME280;1905;52.482;9.802;2022-12-26T01:40:47;100394.31;;;10.44;97.01
3780;BME280;1905;52.482;9.802;2022-12-26T01:43:52;100396.03;;;10.45;97.14
3780;BME280;1905;52.482;9.802;2022-12-26T01:46:23;100381.97;;;10.45;96.62
3780;BME280;1905;52.482;9.802;2022-12-26T01:48:53;100388.97;;;10.46;96.63
3780;BME280;1905;52.482;9.802;2022-12-26T01:51:22;100404.97;;;10.43;96.84
3780;BME280;1905;52.482;9.802;2022-12-26T01:53:54;100411.94;;;10.44;96.75
3780;BME280;1905;52.482;9.802;2022-12-26T01:56:45;100413.81;;;10.42;97.39
3780;BME280;1905;52.482;9.802;2022-12-26T01:59:17;100412.13;;;10.41;96.85
3780;BME280;1905;52.482;9.802;2022-12-26T02:01:46;100415.53;;;10.43;96.58
3780;BME280;1905;52.482;9.802;2022-12-26T02:04:19;100420.94;;;10.40;96.85
3780;BME280;1905;52.482;9.802;2022-12-26T02:07:07;100407.75;;;10.40;97.11
3780;BME280;1905;52.482;9.802;2022-12-26T02:09:36;100412.94;;;10.41;97.33
3780;BME280;1905;52.482;9.802;2022-12-26T02:12:08;100420.94;;;10.40;96.61
3780;BME280;1905;52.482;9.802;2022-12-26T02:15:00;100427.13;;;10.39;96.40
3780;BME280;1905;52.482;9.802;2022-12-26T02:17:29;100427.13;;;10.39;96.35
3780;BME280;1905;52.482;9.802;2022-12-26T02:20:00;100431.66;;;10.37;96.78
3780;BME280;1905;52.482;9.802;2022-12-26T02:25:50;100431.66;;;10.37;97.15
3780;BME280;1905;52.482;9.802;2022-12-26T02:28:48;100439.56;;;10.37;97.15
3780;BME280;1905;52.482;9.802;2022-12-26T02:31:25;100435.38;;;10.33;96.92
3780;BME280;1905;52.482;9.802;2022-12-26T02:34:02;100436.34;;;10.30;96.94
3780;BME280;1905;52.482;9.802;2022-12-26T02:36:45;100444.22;;;10.32;97.43
3780;BME280;1905;52.482;9.802;2022-12-26T02:39:28;100439.94;;;10.29;96.88
3780;BME280;1905;52.482;9.802;2022-12-26T02:42:20;100432.06;;;10.28;97.53
3780;BME280;1905;52.482;9.802;2022-12-26T02:44:52;100441.78;;;10.27;97.61
3780;BME280;1905;52.482;9.802;2022-12-26T02:47:48;100429.38;;;10.29;97.14
3780;BME280;1905;52.482;9.802;2022-12-26T02:50:23;100417.22;;;10.25;97.74
3780;BME280;1905;52.482;9.802;2022-12-26T02:53:19;100414.69;;;10.24;97.18
3780;BME280;1905;52.482;9.802;2022-12-26T02:56:14;100435.00;;;10.22;97.50
3780;BME280;1905;52.482;9.802;2022-12-26T02:59:07;100420.88;;;10.23;96.71
3780;BME280;1905;52.482;9.802;2022-12-26T03:02:22;100439.47;;;10.20;96.92
3780;BME280;1905;52.482;9.802;2022-12-26T03:05:16;100446.47;;;10.21;97.50
3780;BME280;1905;52.482;9.802;2022-12-26T03:08:11;100434.19;;;10.20;96.64
3780;BME280;1905;52.482;9.802;2022-12-26T03:10:57;100437.78;;;10.19;97.40
3780;BME280;1905;52.482;9.802;2022-12-26T03:13:43;100443.06;;;10.19;97.53
3780;BME280;1905;52.482;9.802;2022-12-26T03:16:12;100436.06;;;10.18;97.63
3780;BME280;1905;52.482;9.802;2022-12-26T03:19:03;100437.78;;;10.19;96.88
3780;BME280;1905;52.482;9.802;2022-12-26T03:21:36;100436.06;;;10.18;97.42
3780;BME280;1905;52.482;9.802;2022-12-26T03:24:08;100437.78;;;10.19;97.24
3780;BME280;1905;52.482;9.802;2022-12-26T03:26:39;100435.16;;;10.19;97.06
3780;BME280;1905;52.482;9.802;2022-12-26T03:29:11;100434.19;;;10.20;97.38
3780;BME280;1905;52.482;9.802;2022-12-26T03:31:57;100438.69;;;10.18;97.28
3780;BME280;1905;52.482;9.802;2022-12-26T03:34:25;100437.78;;;10.19;97.03
3780;BME280;1905;52.482;9.802;2022-12-26T03:37:02;100443.06;;;10.19;96.56
3780;BME280;1905;52.482;9.802;2022-12-26T03:39:41;100436.06;;;10.18;96.96
3780;BME280;1905;52.482;9.802;2022-12-26T03:42:50;100432.56;;;10.17;97.17
3780;BME280;1905;52.482;9.802;2022-12-26T03:45:43;100431.69;;;10.16;97.04
3780;BME280;1905;52.482;9.802;2022-12-26T03:48:34;100434.34;;;10.16;96.89
3780;BME280;1905;52.482;9.802;2022-12-26T03:51:29;100437.06;;;10.15;97.31
3780;BME280;1905;52.482;9.802;2022-12-26T03:54:21;100439.63;;;10.16;96.80
3780;BME280;1905;52.482;9.802;2022-12-26T03:57:13;100444.06;;;10.16;96.57
3780;BME280;1905;52.482;9.802;2022-12-26T04:00:16;100452.81;;;10.16;97.19
3780;BME280;1905;52.482;9.802;2022-12-26T04:03:05;100456.53;;;10.12;97.38
3780;BME280;1905;52.482;9.802;2022-12-26T04:05:52;100461.66;;;10.15;97.67
3780;BME280;1905;52.482;9.802;2022-12-26T04:08:46;100459.03;;;10.15;97.66
3780;BME280;1905;52.482;9.802;2022-12-26T04:11:35;100464.31;;;10.15;97.29
3780;BME280;1905;52.482;9.802;2022-12-26T04:14:33;100462.59;;;10.14;97.37
3780;BME280;1905;52.482;9.802;2022-12-26T04:17:25;100464.44;;;10.12;97.80
3780;BME280;1905;52.482;9.802;2022-12-26T04:20:19;100459.16;;;10.12;97.80
3780;BME280;1905;52.482;9.802;2022-12-26T04:22:52;100470.50;;;10.14;98.04
3780;BME280;1905;52.482;9.802;2022-12-26T04:25:45;100480.16;;;10.15;97.41
3780;BME280;1905;52.482;9.802;2022-12-26T04:28:32;100474.09;;;10.13;97.28
3780;BME280;1905;52.482;9.802;2022-12-26T04:31:22;100472.28;;;10.14;97.33
3780;BME280;1905;52.482;9.802;2022-12-26T04:34:14;100470.59;;;10.13;97.27
3780;BME280;1905;52.482;9.802;2022-12-26T04:37:06;100479.38;;;10.13;97.19
3780;BME280;1905;52.482;9.802;2022-12-26T04:39:54;100483.69;;;10.14;97.44
3780;BME280;1905;52.482;9.802;2022-12-26T04:42:42;100474.09;;;10.12;97.29
3780;BME280;1905;52.482;9.802;2022-12-26T04:45:50;100475.00;;;10.12;97.12
3780;BME280;1905;52.482;9.802;2022-12-26T04:48:18;100465.31;;;10.13;97.36
3780;BME280;1905;52.482;9.802;2022-12-26T04:51:04;100462.69;;;10.11;97.54
3780;BME280;1905;52.482;9.802;2022-12-26T04:53:32;100467.88;;;10.14;97.00
3780;BME280;1905;52.482;9.802;2022-12-26T04:55:59;100461.72;;;10.14;96.92
3780;BME280;1905;52.482;9.802;2022-12-26T04:58:27;100467.00;;;10.14;97.29
3780;BME280;1905;52.482;9.802;2022-12-26T05:00:56;100461.72;;;10.14;97.06
3780;BME280;1905;52.482;9.802;2022-12-26T05:03:44;100462.69;;;10.11;97.35
3780;BME280;1905;52.482;9.802;2022-12-26T05:06:29;100468.81;;;10.12;97.29
3780;BME280;1905;52.482;9.802;2022-12-26T05:09:17;100481.25;;;10.10;96.62
3780;BME280;1905;52.482;9.802;2022-12-26T05:12:01;100483.94;;;10.08;96.88
3780;BME280;1905;52.482;9.802;2022-12-26T05:14:29;100484.78;;;10.09;97.10
3780;BME280;1905;52.482;9.802;2022-12-26T05:16:58;100498.06;;;10.07;96.65
3780;BME280;1905;52.482;9.802;2022-12-26T05:19:44;100498.19;;;10.04;96.70
3780;BME280;1905;52.482;9.802;2022-12-26T05:22:30;100495.78;;;10.00;97.49
3780;BME280;1905;52.482;9.802;2022-12-26T05:25:20;100477.38;;;9.98;97.68
3780;BME280;1905;52.482;9.802;2022-12-26T05:28:07;100479.09;;;9.99;97.84
3780;BME280;1905;52.482;9.802;2022-12-26T05:30:54;100477.63;;;9.92;97.57
3780;BME280;1905;52.482;9.802;2022-12-26T05:33:23;100474.06;;;9.93;97.69
3780;BME280;1905;52.482;9.802;2022-12-26T05:36:08;100476.78;;;9.92;97.78
3780;BME280;1905;52.482;9.802;2022-12-26T05:38:36;100488.31;;;9.89;97.44
3780;BME280;1905;52.482;9.802;2022-12-26T05:41:04;100489.16;;;9.90;96.95
3780;BME280;1905;52.482;9.802;2022-12-26T05:43:32;100501.56;;;9.88;97.34
3780;BME280;1905;52.482;9.802;2022-12-26T05:45:59;100511.41;;;9.84;97.09
3780;BME280;1905;52.482;9.802;2022-12-26T05:48:28;100522.06;;;9.81;97.66
3780;BME280;1905;52.482;9.802;2022-12-26T05:50:57;100522.22;;;9.78;97.94
3780;BME280;1905;52.482;9.802;2022-12-26T05:53:25;100524.06;;;9.76;98.40
3780;BME280;1905;52.482;9.802;2022-12-26T05:55:52;100526.81;;;9.73;99.22
3780;BME280;1905;52.482;9.802;2022-12-26T05:58:20;100518.22;;;9.70;98.97
3780;BME280;1905;52.482;9.802;2022-12-26T06:00:48;100519.97;;;9.69;99.50
3780;BME280;1905;52.482;9.802;2022-12-26T06:03:15;100523.53;;;9.68;99.68
3780;BME280;1905;52.482;9.802;2022-12-26T06:05:44;100526.28;;;9.65;99.90
3780;BME280;1905;52.482;9.802;2022-12-26T06:08:11;100515.75;;;9.65;98.86
3780;BME280;1905;52.482;9.802;2022-12-26T06:10:39;100509.56;;;9.66;99.06
3780;BME280;1905;52.482;9.802;2022-12-26T06:13:06;100512.31;;;9.63;99.31
3780;BME280;1905;52.482;9.802;2022-12-26T06:15:37;100514.97;;;9.63;98.36
3780;BME280;1905;52.482;9.802;2022-12-26T06:18:04;100516.69;;;9.64;98.86
3780;BME280;1905;52.482;9.802;2022-12-26T06:20:32;100513.22;;;9.62;98.97
3780;BME280;1905;52.482;9.802;2022-12-26T06:23:01;100519.44;;;9.61;99.68
3780;BME280;1905;52.482;9.802;2022-12-26T06:25:28;100514.19;;;9.61;98.14
3780;BME280;1905;52.482;9.802;2022-12-26T06:27:56;100517.72;;;9.60;98.51
3780;BME280;1905;52.482;9.802;2022-12-26T06:30:23;100521.34;;;9.57;99.43
3780;BME280;1905;52.482;9.802;2022-12-26T06:32:51;100531.03;;;9.57;98.72
3780;BME280;1905;52.482;9.802;2022-12-26T06:35:19;100546.13;;;9.53;98.53
3780;BME280;1905;52.482;9.802;2022-12-26T06:37:46;100547.13;;;9.51;98.57
3780;BME280;1905;52.482;9.802;2022-12-26T06:40:15;100536.72;;;9.48;99.41
3780;BME280;1905;52.482;9.802;2022-12-26T06:42:43;100546.19;;;9.52;99.18
3780;BME280;1905;52.482;9.802;2022-12-26T06:45:10;100548.16;;;9.47;98.22
3780;BME280;1905;52.482;9.802;2022-12-26T06:47:38;100557.97;;;9.43;98.25
3780;BME280;1905;52.482;9.802;2022-12-26T06:50:06;100550.00;;;9.45;98.07
3780;BME280;1905;52.482;9.802;2022-12-26T06:52:33;100556.16;;;9.45;99.08
3780;BME280;1905;52.482;9.802;2022-12-26T06:55:01;100544.84;;;9.42;98.71
3780;BME280;1905;52.482;9.802;2022-12-26T06:57:30;100536.88;;;9.43;98.10
3780;BME280;1905;52.482;9.802;2022-12-26T06:59:58;100548.41;;;9.41;98.94
3780;BME280;1905;52.482;9.802;2022-12-26T07:02:25;100546.59;;;9.43;98.92
3780;BME280;1905;52.482;9.802;2022-12-26T07:04:53;100541.31;;;9.43;99.40
3780;BME280;1905;52.482;9.802;2022-12-26T07:07:21;100523.78;;;9.42;98.28
3780;BME280;1905;52.482;9.802;2022-12-26T07:09:49;100525.53;;;9.41;98.08
3780;BME280;1905;52.482;9.802;2022-12-26T07:12:17;100530.78;;;9.43;98.46
3780;BME280;1905;52.482;9.802;2022-12-26T07:14:48;100523.00;;;9.40;97.99
3780;BME280;1905;52.482;9.802;2022-12-26T07:17:17;100533.41;;;9.43;97.34
3780;BME280;1905;52.482;9.802;2022-12-26T07:19:44;100546.59;;;9.43;97.43
3780;BME280;1905;52.482;9.802;2022-12-26T07:22:12;100546.59;;;9.43;97.42
3780;BME280;1905;52.482;9.802;2022-12-26T07:24:39;100543.00;;;9.44;96.62
3780;BME280;1905;52.482;9.802;2022-12-26T07:27:07;100551.00;;;9.42;96.12
3780;BME280;1905;52.482;9.802;2022-12-26T07:29:34;100541.44;;;9.40;97.24
3780;BME280;1905;52.482;9.802;2022-12-26T07:32:04;100550.38;;;9.36;97.64
3780;BME280;1905;52.482;9.802;2022-12-26T07:34:32;100552.09;;;9.37;97.52
3780;BME280;1905;52.482;9.802;2022-12-26T07:37:00;100547.94;;;9.31;97.92
3780;BME280;1905;52.482;9.802;2022-12-26T07:39:27;100552.34;;;9.31;97.18
3780;BME280;1905;52.482;9.802;2022-12-26T07:41:55;100550.63;;;9.30;97.13
3780;BME280;1905;52.482;9.802;2022-12-26T07:44:27;100559.47;;;9.29;96.75
3780;BME280;1905;52.482;9.802;2022-12-26T07:46:56;100554.22;;;9.27;96.93
3780;BME280;1905;52.482;9.802;2022-12-26T07:49:25;100558.72;;;9.25;97.35
3780;BME280;1905;52.482;9.802;2022-12-26T07:51:53;100560.56;;;9.23;97.65
3780;BME280;1905;52.482;9.802;2022-12-26T07:54:21;100574.66;;;9.22;97.53
3780;BME280;1905;52.482;9.802;2022-12-26T07:56:48;100580.91;;;9.20;97.34
3780;BME280;1905;52.482;9.802;2022-12-26T07:59:16;100587.16;;;9.17;97.18
3780;BME280;1905;52.482;9.802;2022-12-26T08:01:44;100582.78;;;9.16;97.87
3780;BME280;1905;52.482;9.802;2022-12-26T08:04:12;100586.41;;;9.14;98.32
3780;BME280;1905;52.482;9.802;2022-12-26T08:06:41;100590.81;;;9.13;98.84
3780;BME280;1905;52.482;9.802;2022-12-26T08:09:11;100601.53;;;9.09;99.53
3780;BME280;1905;52.482;9.802;2022-12-26T08:11:41;100605.03;;;9.09;99.86
3780;BME280;1905;52.482;9.802;2022-12-26T08:14:10;100602.47;;;9.08;99.41
3780;BME280;1905;52.482;9.802;2022-12-26T08:16:38;100593.75;;;9.06;100.00
3780;BME280;1905;52.482;9.802;2022-12-26T08:19:07;100601.66;;;9.06;100.00
3780;BME280;1905;52.482;9.802;2022-12-26T08:21:34;100593.75;;;9.06;99.83
3780;BME280;1905;52.482;9.802;2022-12-26T08:24:03;100591.78;;;9.11;100.00
3780;BME280;1905;52.482;9.802;2022-12-26T08:26:31;100595.34;;;9.10;99.52
3780;BME280;1905;52.482;9.802;2022-12-26T08:28:58;100599.84;;;9.08;100.00
3780;BME280;1905;52.482;9.802;2022-12-26T08:31:27;100603.19;;;9.11;100.00
3780;BME280;1905;52.482;9.802;2022-12-26T08:33:55;100603.25;;;9.10;100.00
3780;BME280;1905;52.482;9.802;2022-12-26T08:36:23;100585.69;;;9.10;100.00
3780;BME280;1905;52.482;9.802;2022-12-26T08:38:51;100583.97;;;9.09;100.00
3780;BME280;1905;52.482;9.802;2022-12-26T08:41:20;100584.88;;;9.08;100.00
3780;BME280;1905;52.482;9.802;2022-12-26T08:43:48;100589.97;;;9.13;100.00
3780;BME280;1905;52.482;9.802;2022-12-26T08:46:36;100584.72;;;9.13;100.00
3780;BME280;1905;52.482;9.802;2022-12-26T08:49:03;100588.25;;;9.12;99.09
3780;BME280;1905;52.482;9.802;2022-12-26T08:51:31;100591.66;;;9.14;99.90
3780;BME280;1905;52.482;9.802;2022-12-26T08:53:58;100596.81;;;9.17;99.19
3780;BME280;1905;52.482;9.802;2022-12-26T08:56:27;100588.88;;;9.18;99.26
3780;BME280;1905;52.482;9.802;2022-12-26T08:58:55;100600.25;;;9.19;99.36
3780;BME280;1905;52.482;9.802;2022-12-26T09:01:24;100609.88;;;9.20;99.06
3780;BME280;1905;52.482;9.802;2022-12-26T09:03:53;100608.97;;;9.21;99.40
3780;BME280;1905;52.482;9.802;2022-12-26T09:06:21;100626.34;;;9.25;100.00
3780;BME280;1905;52.482;9.802;2022-12-26T09:08:49;100622.94;;;9.23;99.79
3780;BME280;1905;52.482;9.802;2022-12-26T09:11:21;100615.94;;;9.22;100.00
3780;BME280;1905;52.482;9.802;2022-12-26T09:13:50;100622.03;;;9.24;98.85
3780;BME280;1905;52.482;9.802;2022-12-26T09:16:19;100621.09;;;9.25;99.86
3780;BME280;1905;52.482;9.802;2022-12-26T09:18:47;100617.56;;;9.26;99.95
3780;BME280;1905;52.482;9.802;2022-12-26T09:21:15;100627.16;;;9.27;99.68
3780;BME280;1905;52.482;9.802;2022-12-26T09:23:43;100638.50;;;9.29;100.00
3780;BME280;1905;52.482;9.802;2022-12-26T09:26:16;100629.75;;;9.28;99.16
3780;BME280;1905;52.482;9.802;2022-12-26T09:28:44;100639.22;;;9.32;99.97
3780;BME280;1905;52.482;9.802;2022-12-26T09:31:16;100630.34;;;9.35;100.00
3780;BME280;1905;52.482;9.802;2022-12-26T09:33:44;100632.97;;;9.35;99.92
3780;BME280;1905;52.482;9.802;2022-12-26T09:36:14;100636.44;;;9.37;100.00
3780;BME280;1905;52.482;9.802;2022-12-26T09:38:43;100623.97;;;9.40;99.31
3780;BME280;1905;52.482;9.802;2022-12-26T09:41:27;100623.94;;;9.42;99.71
3780;BME280;1905;52.482;9.802;2022-12-26T09:44:04;100623.94;;;9.42;99.15
3780;BME280;1905;52.482;9.802;2022-12-26T09:46:38;100623.81;;;9.45;98.68
3780;BME280;1905;52.482;9.802;2022-12-26T09:49:12;100625.50;;;9.46;99.54
3780;BME280;1905;52.482;9.802;2022-12-26T09:51:43;100624.69;;;9.45;99.23
3780;BME280;1905;52.482;9.802;2022-12-26T09:54:18;100617.47;;;9.49;99.03
3780;BME280;1905;52.482;9.802;2022-12-26T09:56:49;100611.19;;;9.53;99.02
3780;BME280;1905;52.482;9.802;2022-12-26T09:59:31;100609.34;;;9.55;99.17
3780;BME280;1905;52.482;9.802;2022-12-26T10:02:02;100601.38;;;9.56;98.79
3780;BME280;1905;52.482;9.802;2022-12-26T10:04:30;100600.31;;;9.61;99.03
3780;BME280;1905;52.482;9.802;2022-12-26T10:07:05;100601.22;;;9.59;98.89
3780;BME280;1905;52.482;9.802;2022-12-26T10:09:51;100593.94;;;9.66;98.42
3780;BME280;1905;52.482;9.802;2022-12-26T10:12:32;100601.84;;;9.66;99.07
3780;BME280;1905;52.482;9.802;2022-12-26T10:15:12;100607.84;;;9.70;98.44
3780;BME280;1905;52.482;9.802;2022-12-26T10:17:46;100614.81;;;9.71;98.68
3780;BME280;1905;52.482;9.802;2022-12-26T10:20:21;100610.41;;;9.71;98.13
3780;BME280;1905;52.482;9.802;2022-12-26T10:23:01;100605.03;;;9.74;98.89
3780;BME280;1905;52.482;9.802;2022-12-26T10:25:37;100605.03;;;9.74;98.63
3780;BME280;1905;52.482;9.802;2022-12-26T10:28:14;100603.81;;;9.81;98.09
3780;BME280;1905;52.482;9.802;2022-12-26T10:30:44;100600.16;;;9.85;97.57
3780;BME280;1905;52.482;9.802;2022-12-26T10:33:17;100601.03;;;9.86;98.34
3780;BME280;1905;52.482;9.802;2022-12-26T10:35:47;100607.16;;;9.86;97.84
3780;BME280;1905;52.482;9.802;2022-12-26T10:38:21;100609.63;;;9.89;97.49
3780;BME280;1905;52.482;9.802;2022-12-26T10:40:55;100600.81;;;9.90;98.22
3780;BME280;1905;52.482;9.802;2022-12-26T10:43:27;100602.47;;;9.93;97.69
3780;BME280;1905;52.482;9.802;2022-12-26T10:46:12;100596.97;;;9.97;97.64
3780;BME280;1905;52.482;9.802;2022-12-26T10:48:44;100596.97;;;9.97;97.33
3780;BME280;1905;52.482;9.802;2022-12-26T10:51:12;100589.88;;;9.99;97.46
3780;BME280;1905;52.482;9.802;2022-12-26T10:53:43;100582.69;;;10.03;96.66
3780;BME280;1905;52.482;9.802;2022-12-26T10:56:14;100583.50;;;10.05;96.71
3780;BME280;1905;52.482;9.802;2022-12-26T10:58:44;100592.31;;;10.04;96.37
3780;BME280;1905;52.482;9.802;2022-12-26T11:01:30;100596.47;;;10.09;97.12
3780;BME280;1905;52.482;9.802;2022-12-26T11:04:01;100600.88;;;10.09;97.03
3780;BME280;1905;52.482;9.802;2022-12-26T11:06:32;100601.66;;;10.12;96.23
3780;BME280;1905;52.482;9.802;2022-12-26T11:09:03;100604.22;;;10.14;95.97
3780;BME280;1905;52.482;9.802;2022-12-26T11:11:32;100618.28;;;10.14;96.98
3780;BME280;1905;52.482;9.802;2022-12-26T11:14:29;100605.16;;;10.13;97.22
3780;BME280;1905;52.482;9.802;2022-12-26T11:17:02;100606.94;;;10.12;96.69
3780;BME280;1905;52.482;9.802;2022-12-26T11:19:34;100600.66;;;10.15;95.78
3780;BME280;1905;52.482;9.802;2022-12-26T11:22:29;100611.81;;;10.22;95.96
3780;BME280;1905;52.482;9.802;2022-12-26T11:25:15;100599.53;;;10.21;95.85
3780;BME280;1905;52.482;9.802;2022-12-26T11:27:45;100611.00;;;10.20;95.57
3780;BME280;1905;52.482;9.802;2022-12-26T11:30:31;100609.09;;;10.23;96.04
3780;BME280;1905;52.482;9.802;2022-12-26T11:33:21;100606.34;;;10.26;96.00
3780;BME280;1905;52.482;9.802;2022-12-26T11:35:55;100609.84;;;10.27;95.91
3780;BME280;1905;52.482;9.802;2022-12-26T11:38:25;100606.38;;;10.25;94.99
3780;BME280;1905;52.482;9.802;2022-12-26T11:41:13;100599.16;;;10.30;95.08
3780;BME280;1905;52.482;9.802;2022-12-26T11:44:11;100598.28;;;10.29;95.57
3780;BME280;1905;52.482;9.802;2022-12-26T11:46:41;100592.00;;;10.32;94.89
3780;BME280;1905;52.482;9.802;2022-12-26T11:49:17;100587.53;;;10.34;94.45
3780;BME280;1905;52.482;9.802;2022-12-26T11:51:49;100578.69;;;10.35;95.09
3780;BME280;1905;52.482;9.802;2022-12-26T11:54:30;100573.28;;;10.38;94.64
3780;BME280;1905;52.482;9.802;2022-12-26T11:57:17;100566.06;;;10.41;95.22
3780;BME280;1905;52.482;9.802;2022-12-26T11:59:48;100564.91;;;10.47;94.70
3780;BME280;1905;52.482;9.802;2022-12-26T12:02:25;100557.00;;;10.47;94.32
3780;BME280;1905;52.482;9.802;2022-12-26T12:04:58;100559.63;;;10.47;93.81
3780;BME280;1905;52.482;9.802;2022-12-26T12:07:42;100564.91;;;10.47;93.98
3780;BME280;1905;52.482;9.802;2022-12-26T12:10:32;100555.31;;;10.46;94.99
3780;BME280;1905;52.482;9.802;2022-12-26T12:13:06;100564.91;;;10.47;94.52
3780;BME280;1905;52.482;9.802;2022-12-26T12:15:42;100564.66;;;10.53;93.76
3780;BME280;1905;52.482;9.802;2022-12-26T12:18:18;100550.66;;;10.51;94.18
3780;BME280;1905;52.482;9.802;2022-12-26T12:20:56;100556.09;;;10.48;95.09
3780;BME280;1905;52.482;9.802;2022-12-26T12:23:39;100534.81;;;10.51;94.17
3780;BME280;1905;52.482;9.802;2022-12-26T12:26:14;100539.25;;;10.50;94.23
3780;BME280;1905;52.482;9.802;2022-12-26T12:29:15;100537.38;;;10.52;94.64
3780;BME280;1905;52.482;9.802;2022-12-26T12:31:57;100541.81;;;10.52;93.58
3780;BME280;1905;52.482;9.802;2022-12-26T12:34:40;100546.81;;;10.58;93.55
3780;BME280;1905;52.482;9.802;2022-12-26T12:37:17;100540.75;;;10.56;94.05
3780;BME280;1905;52.482;9.802;2022-12-26T12:39:56;100543.38;;;10.56;94.53
3780;BME280;1905;52.482;9.802;2022-12-26T12:42:39;100543.13;;;10.62;94.17
3780;BME280;1905;52.482;9.802;2022-12-26T12:45:22;100523.00;;;10.59;94.21
3780;BME280;1905;52.482;9.802;2022-12-26T12:48:15;100530.69;;;10.64;93.43
3780;BME280;1905;52.482;9.802;2022-12-26T12:50:52;100543.13;;;10.62;93.65
3780;BME280;1905;52.482;9.802;2022-12-26T12:53:30;100531.59;;;10.63;93.41
3780;BME280;1905;52.482;9.802;2022-12-26T12:56:13;100532.28;;;10.68;93.53
3780;BME280;1905;52.482;9.802;2022-12-26T12:58:52;100540.34;;;10.65;93.17
3780;BME280;1905;52.482;9.802;2022-12-26T13:01:25;100520.91;;;10.66;93.37
3780;BME280;1905;52.482;9.802;2022-12-26T13:04:01;100530.56;;;10.67;93.63
3780;BME280;1905;52.482;9.802;2022-12-26T13:06:34;100516.44;;;10.68;92.65
3780;BME280;1905;52.482;9.802;2022-12-26T13:09:06;100519.91;;;10.68;93.71
3780;BME280;1905;52.482;9.802;2022-12-26T13:11:43;100516.25;;;10.71;92.90
3780;BME280;1905;52.482;9.802;2022-12-26T13:14:16;100528.56;;;10.72;92.62
3780;BME280;1905;52.482;9.802;2022-12-26T13:16:49;100528.56;;;10.72;92.45
3780;BME280;1905;52.482;9.802;2022-12-26T13:19:20;100519.84;;;10.70;93.01
3780;BME280;1905;52.482;9.802;2022-12-26T13:21:52;100525.00;;;10.73;93.98
3780;BME280;1905;52.482;9.802;2022-12-26T13:24:26;100528.56;;;10.72;93.75
3780;BME280;1905;52.482;9.802;2022-12-26T13:26:59;100552.41;;;10.70;94.08
3780;BME280;1905;52.482;9.802;2022-12-26T13:29:34;100554.03;;;10.73;94.55
3780;BME280;1905;52.482;9.802;2022-12-26T13:32:04;100563.97;;;10.68;94.65
3780;BME280;1905;52.482;9.802;2022-12-26T13:34:41;100564.16;;;10.63;94.35
3780;BME280;1905;52.482;9.802;2022-12-26T13:37:53;100575.66;;;10.62;95.13
3780;BME280;1905;52.482;9.802;2022-12-26T13:40:24;100578.63;;;10.55;95.41
3780;BME280;1905;52.482;9.802;2022-12-26T13:42:55;100587.50;;;10.54;95.34
3780;BME280;1905;52.482;9.802;2022-12-26T13:45:49;100598.31;;;10.48;95.24
3780;BME280;1905;52.482;9.802;2022-12-26T13:48:53;100613.31;;;10.47;95.74
3780;BME280;1905;52.482;9.802;2022-12-26T13:51:49;100605.59;;;10.43;95.45
3780;BME280;1905;52.482;9.802;2022-12-26T13:54:18;100611.78;;;10.42;95.67
3780;BME280;1905;52.482;9.802;2022-12-26T13:57:26;100611.00;;;10.40;95.41
3780;BME280;1905;52.482;9.802;2022-12-26T14:00:13;100611.16;;;10.37;95.63
3780;BME280;1905;52.482;9.802;2022-12-26T14:03:13;100618.28;;;10.35;95.90